sensor_id;sensor_type;location;lat;lon;timestamp;P1;durP1;ratioP1;P2;durP2;ratioP2
609;SDS011;292;48.800;9.216;2022-09-29T00:02:23;8.00;;;4.23;;
609;SDS011;292;48.800;9.216;2022-09-29T00:04:50;9.00;;;3.20;;
609;SDS011;292;48.800;9.216;2022-09-29T00:07:18;9.70;;;3.63;;
609;SDS011;292;48.800;9.216;2022-09-29T00:09:45;10.43;;;4.27;;
609;SDS011;292;48.800;9.216;2022-09-29T00:12:13;11.20;;;4.80;;
609;SDS011;292;48.800;9.216;2022-09-29T00:14:40;19.23;;;4.67;;
609;SDS011;292;48.800;9.216;2022-09-29T00:17:07;7.63;;;4.50;;
609;SDS011;292;48.800;9.216;2022-09-29T00:19:34;10.23;;;4.07;;
609;SDS011;292;48.800;9.216;2022-09-29T00:22:01;11.03;;;4.47;;
609;SDS011;292;48.800;9.216;2022-09-29T00:24:29;9.90;;;4.50;;
609;SDS011;292;48.800;9.216;2022-09-29T00:26:56;7.40;;;3.87;;
609;SDS011;292;48.800;9.216;2022-09-29T00:29:25;9.97;;;4.60;;
609;SDS011;292;48.800;9.216;2022-09-29T00:31:52;8.33;;;4.23;;
609;SDS011;292;48.800;9.216;2022-09-29T00:34:19;16.53;;;5.30;;
609;SDS011;292;48.800;9.216;2022-09-29T00:36:46;15.77;;;5.93;;
609;SDS011;292;48.800;9.216;2022-09-29T00:39:13;10.20;;;4.43;;
609;SDS011;292;48.800;9.216;2022-09-29T00:41:41;10.70;;;5.30;;
609;SDS011;292;48.800;9.216;2022-09-29T00:47:09;12.20;;;5.70;;
609;SDS011;292;48.800;9.216;2022-09-29T00:49:42;13.43;;;5.83;;
609;SDS011;292;48.800;9.216;2022-09-29T00:52:13;14.73;;;5.33;;
609;SDS011;292;48.800;9.216;2022-09-29T00:54:44;12.60;;;4.90;;
609;SDS011;292;48.800;9.216;2022-09-29T00:57:16;14.00;;;5.03;;
609;SDS011;292;48.800;9.216;2022-09-29T00:59:47;12.17;;;5.50;;
609;SDS011;292;48.800;9.216;2022-09-29T01:02:18;11.07;;;4.83;;
609;SDS011;292;48.800;9.216;2022-09-29T01:04:47;9.33;;;4.47;;
609;SDS011;292;48.800;9.216;2022-09-29T01:07:17;15.40;;;4.63;;
609;SDS011;292;48.800;9.216;2022-09-29T01:09:47;8.57;;;4.10;;
609;SDS011;292;48.800;9.216;2022-09-29T01:12:16;12.87;;;4.80;;
609;SDS011;292;48.800;9.216;2022-09-29T01:14:43;10.17;;;4.17;;
609;SDS011;292;48.800;9.216;2022-09-29T01:17:12;10.47;;;4.57;;
609;SDS011;292;48.800;9.216;2022-09-29T01:19:43;11.83;;;4.53;;
609;SDS011;292;48.800;9.216;2022-09-29T01:22:19;11.60;;;4.50;;
609;SDS011;292;48.800;9.216;2022-09-29T01:25:01;9.70;;;4.47;;
609;SDS011;292;48.800;9.216;2022-09-29T01:27:49;15.23;;;4.55;;
609;SDS011;292;48.800;9.216;2022-09-29T01:33:35;13.00;;;5.07;;
609;SDS011;292;48.800;9.216;2022-09-29T01:36:09;8.77;;;4.20;;
609;SDS011;292;48.800;9.216;2022-09-29T01:38:49;9.20;;;4.13;;
609;SDS011;292;48.800;9.216;2022-09-29T01:41:27;17.10;;;4.83;;
609;SDS011;292;48.800;9.216;2022-09-29T01:44:01;11.20;;;3.73;;
609;SDS011;292;48.800;9.216;2022-09-29T01:46:36;4.43;;;2.70;;
609;SDS011;292;48.800;9.216;2022-09-29T01:49:06;9.23;;;3.50;;
609;SDS011;292;48.800;9.216;2022-09-29T01:51:37;5.83;;;3.53;;
609;SDS011;292;48.800;9.216;2022-09-29T01:54:11;7.97;;;4.03;;
609;SDS011;292;48.800;9.216;2022-09-29T01:56:46;11.00;;;4.47;;
609;SDS011;292;48.800;9.216;2022-09-29T01:59:17;9.17;;;3.80;;
609;SDS011;292;48.800;9.216;2022-09-29T02:01:49;9.57;;;3.60;;
609;SDS011;292;48.800;9.216;2022-09-29T02:04:22;8.13;;;4.20;;
609;SDS011;292;48.800;9.216;2022-09-29T02:06:53;10.43;;;5.00;;
609;SDS011;292;48.800;9.216;2022-09-29T02:09:27;10.20;;;3.50;;
609;SDS011;292;48.800;9.216;2022-09-29T02:11:59;9.23;;;3.57;;
609;SDS011;292;48.800;9.216;2022-09-29T02:14:28;8.03;;;3.70;;
609;SDS011;292;48.800;9.216;2022-09-29T02:17:01;9.80;;;4.00;;
609;SDS011;292;48.800;9.216;2022-09-29T02:19:32;9.67;;;3.73;;
609;SDS011;292;48.800;9.216;2022-09-29T02:22:01;10.83;;;4.67;;
609;SDS011;292;48.800;9.216;2022-09-29T02:24:28;5.77;;;3.80;;
609;SDS011;292;48.800;9.216;2022-09-29T02:26:56;8.90;;;3.70;;
609;SDS011;292;48.800;9.216;2022-09-29T02:29:24;16.67;;;4.37;;
609;SDS011;292;48.800;9.216;2022-09-29T02:31:51;8.67;;;3.57;;
609;SDS011;292;48.800;9.216;2022-09-29T02:34:22;10.00;;;3.60;;
609;SDS011;292;48.800;9.216;2022-09-29T02:36:53;7.85;;;4.15;;
609;SDS011;292;48.800;9.216;2022-09-29T02:39:31;7.63;;;4.45;;
609;SDS011;292;48.800;9.216;2022-09-29T02:42:12;9.80;;;4.20;;
609;SDS011;292;48.800;9.216;2022-09-29T02:44:49;11.50;;;5.03;;
609;SDS011;292;48.800;9.216;2022-09-29T02:47:29;8.00;;;3.97;;
609;SDS011;292;48.800;9.216;2022-09-29T02:50:18;8.17;;;4.20;;
609;SDS011;292;48.800;9.216;2022-09-29T02:52:58;6.60;;;3.27;;
609;SDS011;292;48.800;9.216;2022-09-29T02:55:32;7.60;;;4.23;;
609;SDS011;292;48.800;9.216;2022-09-29T02:58:06;8.47;;;4.30;;
609;SDS011;292;48.800;9.216;2022-09-29T03:00:39;12.20;;;4.60;;
609;SDS011;292;48.800;9.216;2022-09-29T03:03:08;11.77;;;4.20;;
609;SDS011;292;48.800;9.216;2022-09-29T03:05:36;12.50;;;4.70;;
609;SDS011;292;48.800;9.216;2022-09-29T03:08:04;12.50;;;4.80;;
609;SDS011;292;48.800;9.216;2022-09-29T03:10:31;9.73;;;3.90;;
609;SDS011;292;48.800;9.216;2022-09-29T03:12:58;10.43;;;4.43;;
609;SDS011;292;48.800;9.216;2022-09-29T03:15:25;11.00;;;4.80;;
609;SDS011;292;48.800;9.216;2022-09-29T03:17:53;15.33;;;5.33;;
609;SDS011;292;48.800;9.216;2022-09-29T03:20:21;8.90;;;4.45;;
609;SDS011;292;48.800;9.216;2022-09-29T03:22:50;12.00;;;4.93;;
609;SDS011;292;48.800;9.216;2022-09-29T03:25:20;11.27;;;4.77;;
609;SDS011;292;48.800;9.216;2022-09-29T03:27:48;12.10;;;4.97;;
609;SDS011;292;48.800;9.216;2022-09-29T03:30:16;12.30;;;5.40;;
609;SDS011;292;48.800;9.216;2022-09-29T03:32:43;10.47;;;5.20;;
609;SDS011;292;48.800;9.216;2022-09-29T03:35:11;11.17;;;5.33;;
609;SDS011;292;48.800;9.216;2022-09-29T03:37:38;14.27;;;5.47;;
609;SDS011;292;48.800;9.216;2022-09-29T03:40:07;9.00;;;4.47;;
609;SDS011;292;48.800;9.216;2022-09-29T03:42:35;8.13;;;4.27;;
609;SDS011;292;48.800;9.216;2022-09-29T03:45:03;6.40;;;4.33;;
609;SDS011;292;48.800;9.216;2022-09-29T03:47:30;11.47;;;4.50;;
609;SDS011;292;48.800;9.216;2022-09-29T03:49:57;9.30;;;4.65;;
609;SDS011;292;48.800;9.216;2022-09-29T03:52:24;10.77;;;5.00;;
609;SDS011;292;48.800;9.216;2022-09-29T03:54:52;8.63;;;4.50;;
609;SDS011;292;48.800;9.216;2022-09-29T03:57:20;10.30;;;5.63;;
609;SDS011;292;48.800;9.216;2022-09-29T03:59:47;10.67;;;5.10;;
609;SDS011;292;48.800;9.216;2022-09-29T04:02:15;10.80;;;4.47;;
609;SDS011;292;48.800;9.216;2022-09-29T04:04:44;11.90;;;4.70;;
609;SDS011;292;48.800;9.216;2022-09-29T04:07:11;10.97;;;4.70;;
609;SDS011;292;48.800;9.216;2022-09-29T04:09:38;11.77;;;5.30;;
609;SDS011;292;48.800;9.216;2022-09-29T04:12:05;14.20;;;5.33;;
609;SDS011;292;48.800;9.216;2022-09-29T04:14:33;14.53;;;6.43;;
609;SDS011;292;48.800;9.216;2022-09-29T04:17:00;14.90;;;6.00;;
609;SDS011;292;48.800;9.216;2022-09-29T04:19:27;15.03;;;6.47;;
609;SDS011;292;48.800;9.216;2022-09-29T04:21:55;9.90;;;5.00;;
609;SDS011;292;48.800;9.216;2022-09-29T04:24:22;13.90;;;6.00;;
609;SDS011;292;48.800;9.216;2022-09-29T04:26:49;9.80;;;4.97;;
609;SDS011;292;48.800;9.216;2022-09-29T04:29:16;12.93;;;5.40;;
609;SDS011;292;48.800;9.216;2022-09-29T04:31:45;15.00;;;6.33;;
609;SDS011;292;48.800;9.216;2022-09-29T04:34:12;14.40;;;6.57;;
609;SDS011;292;48.800;9.216;2022-09-29T04:36:39;12.53;;;6.00;;
609;SDS011;292;48.800;9.216;2022-09-29T04:39:06;13.47;;;6.17;;
609;SDS011;292;48.800;9.216;2022-09-29T04:41:33;12.50;;;6.17;;
609;SDS011;292;48.800;9.216;2022-09-29T04:44:03;13.40;;;6.27;;
609;SDS011;292;48.800;9.216;2022-09-29T04:46:31;12.23;;;5.90;;
609;SDS011;292;48.800;9.216;2022-09-29T04:48:59;11.37;;;6.60;;
609;SDS011;292;48.800;9.216;2022-09-29T04:51:27;21.60;;;6.10;;
609;SDS011;292;48.800;9.216;2022-09-29T04:53:53;18.90;;;5.37;;
609;SDS011;292;48.800;9.216;2022-09-29T04:56:21;15.30;;;5.77;;
609;SDS011;292;48.800;9.216;2022-09-29T04:58:48;13.43;;;5.53;;
609;SDS011;292;48.800;9.216;2022-09-29T05:01:15;16.60;;;6.87;;
609;SDS011;292;48.800;9.216;2022-09-29T05:03:42;19.40;;;7.07;;
609;SDS011;292;48.800;9.216;2022-09-29T05:06:10;18.38;;;6.60;;
609;SDS011;292;48.800;9.216;2022-09-29T05:08:38;12.73;;;5.90;;
609;SDS011;292;48.800;9.216;2022-09-29T05:11:05;9.33;;;4.53;;
609;SDS011;292;48.800;9.216;2022-09-29T05:13:33;9.77;;;5.10;;
609;SDS011;292;48.800;9.216;2022-09-29T05:16:01;13.30;;;4.95;;
609;SDS011;292;48.800;9.216;2022-09-29T05:18:28;11.23;;;5.27;;
609;SDS011;292;48.800;9.216;2022-09-29T05:20:56;11.90;;;4.67;;
609;SDS011;292;48.800;9.216;2022-09-29T05:23:30;11.47;;;4.13;;
609;SDS011;292;48.800;9.216;2022-09-29T05:25:59;12.03;;;4.63;;
609;SDS011;292;48.800;9.216;2022-09-29T05:28:27;7.80;;;4.40;;
609;SDS011;292;48.800;9.216;2022-09-29T05:30:59;8.33;;;4.60;;
609;SDS011;292;48.800;9.216;2022-09-29T05:33:26;7.87;;;4.30;;
609;SDS011;292;48.800;9.216;2022-09-29T05:35:53;13.13;;;4.83;;
609;SDS011;292;48.800;9.216;2022-09-29T05:38:21;16.27;;;5.07;;
609;SDS011;292;48.800;9.216;2022-09-29T05:40:51;9.07;;;4.53;;
609;SDS011;292;48.800;9.216;2022-09-29T05:43:19;17.57;;;4.93;;
609;SDS011;292;48.800;9.216;2022-09-29T05:45:46;9.20;;;4.30;;
609;SDS011;292;48.800;9.216;2022-09-29T05:48:13;11.93;;;5.05;;
609;SDS011;292;48.800;9.216;2022-09-29T05:50:40;10.43;;;4.50;;
609;SDS011;292;48.800;9.216;2022-09-29T05:53:07;10.75;;;4.82;;
609;SDS011;292;48.800;9.216;2022-09-29T05:55:34;10.10;;;4.40;;
609;SDS011;292;48.800;9.216;2022-09-29T05:58:03;9.20;;;4.50;;
609;SDS011;292;48.800;9.216;2022-09-29T06:00:31;8.95;;;5.35;;
609;SDS011;292;48.800;9.216;2022-09-29T06:02:59;8.83;;;4.80;;
609;SDS011;292;48.800;9.216;2022-09-29T06:05:26;7.88;;;5.13;;
609;SDS011;292;48.800;9.216;2022-09-29T06:07:54;18.27;;;6.60;;
609;SDS011;292;48.800;9.216;2022-09-29T06:10:22;9.70;;;4.60;;
609;SDS011;292;48.800;9.216;2022-09-29T06:12:49;12.10;;;5.30;;
609;SDS011;292;48.800;9.216;2022-09-29T06:15:18;9.83;;;4.90;;
609;SDS011;292;48.800;9.216;2022-09-29T06:17:45;15.17;;;5.43;;
609;SDS011;292;48.800;9.216;2022-09-29T06:20:12;11.87;;;5.07;;
609;SDS011;292;48.800;9.216;2022-09-29T06:22:39;19.70;;;5.80;;
609;SDS011;292;48.800;9.216;2022-09-29T06:25:07;11.00;;;5.13;;
609;SDS011;292;48.800;9.216;2022-09-29T06:27:34;13.50;;;5.70;;
609;SDS011;292;48.800;9.216;2022-09-29T06:30:02;7.93;;;5.13;;
609;SDS011;292;48.800;9.216;2022-09-29T06:32:30;14.20;;;6.35;;
609;SDS011;292;48.800;9.216;2022-09-29T06:34:58;12.30;;;5.80;;
609;SDS011;292;48.800;9.216;2022-09-29T06:37:42;12.75;;;6.32;;
609;SDS011;292;48.800;9.216;2022-09-29T06:40:11;28.20;;;6.88;;
609;SDS011;292;48.800;9.216;2022-09-29T06:42:39;12.87;;;5.47;;
609;SDS011;292;48.800;9.216;2022-09-29T06:45:06;9.83;;;4.93;;
609;SDS011;292;48.800;9.216;2022-09-29T06:47:36;10.50;;;4.87;;
609;SDS011;292;48.800;9.216;2022-09-29T06:50:04;11.37;;;5.50;;
609;SDS011;292;48.800;9.216;2022-09-29T06:52:31;11.35;;;4.95;;
609;SDS011;292;48.800;9.216;2022-09-29T06:54:58;12.20;;;4.67;;
609;SDS011;292;48.800;9.216;2022-09-29T06:57:25;10.03;;;4.97;;
609;SDS011;292;48.800;9.216;2022-09-29T06:59:53;8.97;;;4.77;;
609;SDS011;292;48.800;9.216;2022-09-29T07:02:20;9.87;;;4.70;;
609;SDS011;292;48.800;9.216;2022-09-29T07:04:48;7.20;;;3.67;;
609;SDS011;292;48.800;9.216;2022-09-29T07:07:15;6.93;;;4.20;;
609;SDS011;292;48.800;9.216;2022-09-29T07:09:43;11.10;;;4.80;;
609;SDS011;292;48.800;9.216;2022-09-29T07:12:10;7.93;;;4.47;;
609;SDS011;292;48.800;9.216;2022-09-29T07:14:37;15.37;;;5.33;;
609;SDS011;292;48.800;9.216;2022-09-29T07:17:05;20.30;;;5.13;;
609;SDS011;292;48.800;9.216;2022-09-29T07:19:33;17.80;;;5.90;;
609;SDS011;292;48.800;9.216;2022-09-29T07:22:01;9.53;;;5.70;;
609;SDS011;292;48.800;9.216;2022-09-29T07:24:30;11.82;;;5.65;;
609;SDS011;292;48.800;9.216;2022-09-29T07:26:57;8.63;;;4.50;;
609;SDS011;292;48.800;9.216;2022-09-29T07:29:24;10.70;;;4.30;;
609;SDS011;292;48.800;9.216;2022-09-29T07:31:51;12.50;;;4.70;;
609;SDS011;292;48.800;9.216;2022-09-29T07:34:19;7.43;;;3.90;;
609;SDS011;292;48.800;9.216;2022-09-29T07:36:47;11.67;;;5.07;;
609;SDS011;292;48.800;9.216;2022-09-29T07:39:15;7.33;;;4.37;;
609;SDS011;292;48.800;9.216;2022-09-29T07:41:42;14.77;;;4.60;;
609;SDS011;292;48.800;9.216;2022-09-29T07:44:10;8.33;;;4.50;;
609;SDS011;292;48.800;9.216;2022-09-29T07:46:37;8.57;;;3.90;;
609;SDS011;292;48.800;9.216;2022-09-29T07:49:04;7.97;;;4.47;;
609;SDS011;292;48.800;9.216;2022-09-29T07:51:31;11.47;;;3.97;;
609;SDS011;292;48.800;9.216;2022-09-29T07:54:00;7.97;;;3.90;;
609;SDS011;292;48.800;9.216;2022-09-29T07:56:31;10.87;;;4.00;;
609;SDS011;292;48.800;9.216;2022-09-29T07:59:00;6.57;;;3.87;;
609;SDS011;292;48.800;9.216;2022-09-29T08:01:29;4.93;;;3.17;;
609;SDS011;292;48.800;9.216;2022-09-29T08:03:56;11.60;;;3.80;;
609;SDS011;292;48.800;9.216;2022-09-29T08:06:24;7.00;;;4.20;;
609;SDS011;292;48.800;9.216;2022-09-29T08:08:52;5.80;;;3.80;;
609;SDS011;292;48.800;9.216;2022-09-29T08:11:21;8.23;;;3.80;;
609;SDS011;292;48.800;9.216;2022-09-29T08:13:50;7.57;;;4.17;;
609;SDS011;292;48.800;9.216;2022-09-29T08:16:18;6.40;;;3.53;;
609;SDS011;292;48.800;9.216;2022-09-29T08:18:45;7.47;;;3.90;;
609;SDS011;292;48.800;9.216;2022-09-29T08:21:12;5.83;;;3.50;;
609;SDS011;292;48.800;9.216;2022-09-29T08:23:40;9.50;;;3.60;;
609;SDS011;292;48.800;9.216;2022-09-29T08:26:09;10.80;;;4.63;;
609;SDS011;292;48.800;9.216;2022-09-29T08:28:38;8.63;;;4.40;;
609;SDS011;292;48.800;9.216;2022-09-29T08:31:08;9.10;;;3.60;;
609;SDS011;292;48.800;9.216;2022-09-29T08:33:37;7.50;;;4.03;;
609;SDS011;292;48.800;9.216;2022-09-29T08:36:05;10.27;;;5.13;;
609;SDS011;292;48.800;9.216;2022-09-29T08:38:38;8.90;;;4.33;;
609;SDS011;292;48.800;9.216;2022-09-29T08:41:11;7.00;;;3.33;;
609;SDS011;292;48.800;9.216;2022-09-29T08:43:48;12.50;;;4.73;;
609;SDS011;292;48.800;9.216;2022-09-29T08:46:20;8.43;;;3.83;;
609;SDS011;292;48.800;9.216;2022-09-29T08:48:52;8.67;;;3.93;;
609;SDS011;292;48.800;9.216;2022-09-29T08:51:23;10.70;;;3.70;;
609;SDS011;292;48.800;9.216;2022-09-29T08:53:54;7.57;;;4.27;;
609;SDS011;292;48.800;9.216;2022-09-29T08:56:24;6.17;;;3.80;;
609;SDS011;292;48.800;9.216;2022-09-29T08:58:51;10.10;;;4.00;;
609;SDS011;292;48.800;9.216;2022-09-29T09:01:22;12.73;;;3.40;;
609;SDS011;292;48.800;9.216;2022-09-29T09:04:13;5.07;;;3.67;;
609;SDS011;292;48.800;9.216;2022-09-29T09:07:02;11.20;;;4.50;;
609;SDS011;292;48.800;9.216;2022-09-29T09:09:39;9.93;;;5.07;;
609;SDS011;292;48.800;9.216;2022-09-29T09:12:21;8.83;;;4.37;;
609;SDS011;292;48.800;9.216;2022-09-29T09:18:02;6.93;;;4.23;;
609;SDS011;292;48.800;9.216;2022-09-29T09:20:40;7.80;;;4.03;;
609;SDS011;292;48.800;9.216;2022-09-29T09:23:13;7.53;;;3.70;;
609;SDS011;292;48.800;9.216;2022-09-29T09:25:46;9.60;;;3.40;;
609;SDS011;292;48.800;9.216;2022-09-29T09:28:17;5.80;;;3.80;;
609;SDS011;292;48.800;9.216;2022-09-29T09:30:48;9.30;;;4.20;;
609;SDS011;292;48.800;9.216;2022-09-29T09:33:24;6.90;;;3.47;;
609;SDS011;292;48.800;9.216;2022-09-29T09:35:57;10.83;;;4.70;;
609;SDS011;292;48.800;9.216;2022-09-29T09:38:32;9.23;;;4.10;;
609;SDS011;292;48.800;9.216;2022-09-29T09:41:11;9.00;;;3.77;;
609;SDS011;292;48.800;9.216;2022-09-29T09:43:40;7.50;;;4.00;;
609;SDS011;292;48.800;9.216;2022-09-29T09:46:12;4.67;;;3.27;;
609;SDS011;292;48.800;9.216;2022-09-29T09:48:48;6.00;;;2.60;;
609;SDS011;292;48.800;9.216;2022-09-29T09:51:28;4.93;;;2.90;;
609;SDS011;292;48.800;9.216;2022-09-29T09:54:10;7.30;;;3.30;;
609;SDS011;292;48.800;9.216;2022-09-29T09:56:44;8.53;;;3.37;;
609;SDS011;292;48.800;9.216;2022-09-29T09:59:26;8.17;;;3.13;;
609;SDS011;292;48.800;9.216;2022-09-29T10:02:01;7.37;;;3.33;;
609;SDS011;292;48.800;9.216;2022-09-29T10:04:29;8.47;;;3.57;;
609;SDS011;292;48.800;9.216;2022-09-29T10:06:57;5.40;;;3.37;;
609;SDS011;292;48.800;9.216;2022-09-29T10:09:24;13.70;;;3.00;;
609;SDS011;292;48.800;9.216;2022-09-29T10:11:51;11.23;;;3.30;;
609;SDS011;292;48.800;9.216;2022-09-29T10:14:20;6.00;;;3.40;;
609;SDS011;292;48.800;9.216;2022-09-29T10:16:51;5.97;;;2.97;;
609;SDS011;292;48.800;9.216;2022-09-29T10:19:23;6.10;;;2.63;;
609;SDS011;292;48.800;9.216;2022-09-29T10:22:18;6.23;;;2.93;;
609;SDS011;292;48.800;9.216;2022-09-29T10:24:46;8.83;;;3.10;;
609;SDS011;292;48.800;9.216;2022-09-29T10:27:16;8.70;;;3.93;;
609;SDS011;292;48.800;9.216;2022-09-29T10:29:45;15.20;;;3.50;;
609;SDS011;292;48.800;9.216;2022-09-29T10:32:15;5.07;;;2.67;;
609;SDS011;292;48.800;9.216;2022-09-29T10:34:51;8.47;;;3.10;;
609;SDS011;292;48.800;9.216;2022-09-29T10:37:29;7.53;;;2.93;;
609;SDS011;292;48.800;9.216;2022-09-29T10:40:02;8.13;;;3.03;;
609;SDS011;292;48.800;9.216;2022-09-29T10:42:40;4.60;;;2.83;;
609;SDS011;292;48.800;9.216;2022-09-29T10:45:10;4.60;;;2.70;;
609;SDS011;292;48.800;9.216;2022-09-29T10:47:39;6.60;;;2.53;;
609;SDS011;292;48.800;9.216;2022-09-29T10:50:10;8.73;;;2.87;;
609;SDS011;292;48.800;9.216;2022-09-29T10:52:42;7.90;;;2.97;;
609;SDS011;292;48.800;9.216;2022-09-29T10:55:15;7.87;;;2.83;;
609;SDS011;292;48.800;9.216;2022-09-29T10:57:44;6.17;;;2.30;;
609;SDS011;292;48.800;9.216;2022-09-29T11:03:04;9.00;;;2.87;;
609;SDS011;292;48.800;9.216;2022-09-29T11:05:45;9.23;;;2.70;;
609;SDS011;292;48.800;9.216;2022-09-29T11:08:19;6.63;;;2.70;;
609;SDS011;292;48.800;9.216;2022-09-29T11:11:01;6.17;;;2.50;;
609;SDS011;292;48.800;9.216;2022-09-29T11:13:33;2.67;;;1.53;;
609;SDS011;292;48.800;9.216;2022-09-29T11:16:11;8.60;;;1.90;;
609;SDS011;292;48.800;9.216;2022-09-29T11:18:40;9.10;;;2.30;;
609;SDS011;292;48.800;9.216;2022-09-29T11:24:27;2.20;;;1.30;;
609;SDS011;292;48.800;9.216;2022-09-29T11:27:14;4.73;;;1.73;;
609;SDS011;292;48.800;9.216;2022-09-29T11:29:51;5.00;;;1.97;;
609;SDS011;292;48.800;9.216;2022-09-29T11:32:33;4.03;;;1.93;;
609;SDS011;292;48.800;9.216;2022-09-29T11:35:24;4.73;;;2.13;;
609;SDS011;292;48.800;9.216;2022-09-29T11:38:11;3.50;;;1.30;;
609;SDS011;292;48.800;9.216;2022-09-29T11:41:03;7.10;;;2.30;;
609;SDS011;292;48.800;9.216;2022-09-29T11:43:42;7.07;;;1.90;;
609;SDS011;292;48.800;9.216;2022-09-29T11:49:08;4.90;;;1.63;;
609;SDS011;292;48.800;9.216;2022-09-29T11:51:49;4.43;;;2.10;;
609;SDS011;292;48.800;9.216;2022-09-29T11:54:33;4.90;;;2.50;;
609;SDS011;292;48.800;9.216;2022-09-29T11:57:17;5.47;;;2.40;;
609;SDS011;292;48.800;9.216;2022-09-29T11:59:58;2.60;;;1.63;;
609;SDS011;292;48.800;9.216;2022-09-29T12:02:37;6.30;;;2.20;;
609;SDS011;292;48.800;9.216;2022-09-29T12:05:40;7.07;;;2.40;;
609;SDS011;292;48.800;9.216;2022-09-29T12:08:18;3.47;;;1.77;;
609;SDS011;292;48.800;9.216;2022-09-29T12:10:55;5.47;;;2.30;;
609;SDS011;292;48.800;9.216;2022-09-29T12:13:34;8.40;;;2.03;;
609;SDS011;292;48.800;9.216;2022-09-29T12:16:10;3.23;;;1.60;;
609;SDS011;292;48.800;9.216;2022-09-29T12:18:40;10.33;;;1.53;;
609;SDS011;292;48.800;9.216;2022-09-29T12:21:13;4.97;;;2.27;;
609;SDS011;292;48.800;9.216;2022-09-29T12:23:45;1.90;;;1.40;;
609;SDS011;292;48.800;9.216;2022-09-29T12:26:14;2.77;;;1.17;;
609;SDS011;292;48.800;9.216;2022-09-29T12:28:47;4.27;;;1.90;;
609;SDS011;292;48.800;9.216;2022-09-29T12:31:21;5.30;;;1.60;;
609;SDS011;292;48.800;9.216;2022-09-29T12:33:52;5.30;;;1.23;;
609;SDS011;292;48.800;9.216;2022-09-29T12:36:28;8.23;;;1.77;;
609;SDS011;292;48.800;9.216;2022-09-29T12:39:14;5.57;;;1.80;;
609;SDS011;292;48.800;9.216;2022-09-29T12:41:51;3.33;;;1.40;;
609;SDS011;292;48.800;9.216;2022-09-29T12:44:25;4.70;;;1.73;;
609;SDS011;292;48.800;9.216;2022-09-29T12:47:00;2.80;;;1.60;;
609;SDS011;292;48.800;9.216;2022-09-29T12:49:36;3.10;;;1.53;;
609;SDS011;292;48.800;9.216;2022-09-29T12:52:13;2.90;;;1.33;;
609;SDS011;292;48.800;9.216;2022-09-29T12:54:53;4.90;;;1.87;;
609;SDS011;292;48.800;9.216;2022-09-29T12:57:24;3.53;;;1.63;;
609;SDS011;292;48.800;9.216;2022-09-29T12:59:59;4.30;;;1.80;;
609;SDS011;292;48.800;9.216;2022-09-29T13:02:33;4.63;;;1.57;;
609;SDS011;292;48.800;9.216;2022-09-29T13:05:32;2.47;;;1.40;;
609;SDS011;292;48.800;9.216;2022-09-29T13:08:23;4.60;;;1.77;;
609;SDS011;292;48.800;9.216;2022-09-29T13:11:14;7.63;;;1.60;;
609;SDS011;292;48.800;9.216;2022-09-29T13:16:55;3.77;;;1.47;;
609;SDS011;292;48.800;9.216;2022-09-29T13:19:36;4.47;;;1.30;;
609;SDS011;292;48.800;9.216;2022-09-29T13:25:31;3.40;;;1.50;;
609;SDS011;292;48.800;9.216;2022-09-29T13:28:09;5.30;;;1.53;;
609;SDS011;292;48.800;9.216;2022-09-29T13:30:48;2.40;;;1.33;;
609;SDS011;292;48.800;9.216;2022-09-29T13:33:18;6.53;;;1.20;;
609;SDS011;292;48.800;9.216;2022-09-29T13:35:48;4.00;;;1.30;;
609;SDS011;292;48.800;9.216;2022-09-29T13:38:17;2.80;;;1.67;;
609;SDS011;292;48.800;9.216;2022-09-29T13:43:37;3.80;;;1.07;;
609;SDS011;292;48.800;9.216;2022-09-29T13:46:26;6.93;;;1.80;;
609;SDS011;292;48.800;9.216;2022-09-29T13:49:10;5.13;;;1.63;;
609;SDS011;292;48.800;9.216;2022-09-29T13:51:44;4.47;;;1.33;;
609;SDS011;292;48.800;9.216;2022-09-29T13:54:24;4.77;;;1.57;;
609;SDS011;292;48.800;9.216;2022-09-29T13:56:59;3.50;;;1.20;;
609;SDS011;292;48.800;9.216;2022-09-29T13:59:44;4.47;;;1.70;;
609;SDS011;292;48.800;9.216;2022-09-29T14:02:27;8.27;;;2.00;;
609;SDS011;292;48.800;9.216;2022-09-29T14:05:00;4.07;;;1.30;;
609;SDS011;292;48.800;9.216;2022-09-29T14:07:38;3.83;;;1.63;;
609;SDS011;292;48.800;9.216;2022-09-29T14:10:17;4.17;;;1.60;;
609;SDS011;292;48.800;9.216;2022-09-29T14:12:50;2.90;;;1.30;;
609;SDS011;292;48.800;9.216;2022-09-29T14:15:22;4.20;;;1.50;;
609;SDS011;292;48.800;9.216;2022-09-29T14:17:53;6.63;;;1.47;;
609;SDS011;292;48.800;9.216;2022-09-29T14:20:26;5.83;;;1.60;;
609;SDS011;292;48.800;9.216;2022-09-29T14:22:57;7.03;;;2.00;;
609;SDS011;292;48.800;9.216;2022-09-29T14:28:21;3.17;;;1.43;;
609;SDS011;292;48.800;9.216;2022-09-29T14:31:00;8.97;;;2.00;;
609;SDS011;292;48.800;9.216;2022-09-29T14:33:29;3.43;;;1.80;;
609;SDS011;292;48.800;9.216;2022-09-29T14:36:05;4.00;;;1.57;;
609;SDS011;292;48.800;9.216;2022-09-29T14:38:40;6.20;;;1.77;;
609;SDS011;292;48.800;9.216;2022-09-29T14:41:20;4.97;;;1.70;;
609;SDS011;292;48.800;9.216;2022-09-29T14:43:57;6.17;;;1.97;;
609;SDS011;292;48.800;9.216;2022-09-29T14:49:45;4.53;;;1.83;;
609;SDS011;292;48.800;9.216;2022-09-29T14:52:57;6.90;;;1.83;;
609;SDS011;292;48.800;9.216;2022-09-29T14:55:35;5.13;;;1.83;;
609;SDS011;292;48.800;9.216;2022-09-29T14:58:18;4.80;;;1.80;;
609;SDS011;292;48.800;9.216;2022-09-29T15:00:59;4.10;;;1.67;;
609;SDS011;292;48.800;9.216;2022-09-29T15:03:34;10.40;;;2.20;;
609;SDS011;292;48.800;9.216;2022-09-29T15:06:10;4.40;;;1.77;;
609;SDS011;292;48.800;9.216;2022-09-29T15:08:41;3.73;;;1.80;;
609;SDS011;292;48.800;9.216;2022-09-29T15:11:23;4.27;;;1.77;;
609;SDS011;292;48.800;9.216;2022-09-29T15:14:15;3.23;;;1.47;;
609;SDS011;292;48.800;9.216;2022-09-29T15:16:48;3.30;;;2.07;;
609;SDS011;292;48.800;9.216;2022-09-29T15:19:41;4.83;;;2.10;;
609;SDS011;292;48.800;9.216;2022-09-29T15:25:26;2.83;;;1.90;;
609;SDS011;292;48.800;9.216;2022-09-29T15:27:57;4.70;;;1.83;;
609;SDS011;292;48.800;9.216;2022-09-29T15:30:26;6.70;;;2.30;;
609;SDS011;292;48.800;9.216;2022-09-29T15:33:01;2.10;;;1.40;;
609;SDS011;292;48.800;9.216;2022-09-29T15:35:36;7.73;;;2.00;;
609;SDS011;292;48.800;9.216;2022-09-29T15:38:14;6.10;;;2.27;;
609;SDS011;292;48.800;9.216;2022-09-29T15:40:55;3.60;;;1.80;;
609;SDS011;292;48.800;9.216;2022-09-29T15:43:24;4.63;;;1.43;;
609;SDS011;292;48.800;9.216;2022-09-29T15:45:53;5.03;;;1.83;;
609;SDS011;292;48.800;9.216;2022-09-29T15:48:24;2.90;;;1.50;;
609;SDS011;292;48.800;9.216;2022-09-29T15:50:52;8.50;;;1.53;;
609;SDS011;292;48.800;9.216;2022-09-29T15:53:20;2.10;;;1.43;;
609;SDS011;292;48.800;9.216;2022-09-29T15:55:48;3.60;;;1.37;;
609;SDS011;292;48.800;9.216;2022-09-29T15:58:36;4.87;;;1.80;;
609;SDS011;292;48.800;9.216;2022-09-29T16:01:12;5.60;;;1.57;;
609;SDS011;292;48.800;9.216;2022-09-29T16:03:52;3.73;;;1.70;;
609;SDS011;292;48.800;9.216;2022-09-29T16:06:27;2.33;;;1.67;;
609;SDS011;292;48.800;9.216;2022-09-29T16:08:56;4.90;;;2.03;;
609;SDS011;292;48.800;9.216;2022-09-29T16:11:29;7.53;;;3.63;;
609;SDS011;292;48.800;9.216;2022-09-29T16:14:02;4.60;;;2.73;;
609;SDS011;292;48.800;9.216;2022-09-29T16:16:34;4.33;;;1.80;;
609;SDS011;292;48.800;9.216;2022-09-29T16:19:06;7.70;;;2.23;;
609;SDS011;292;48.800;9.216;2022-09-29T16:21:37;2.20;;;1.63;;
609;SDS011;292;48.800;9.216;2022-09-29T16:24:14;2.73;;;1.60;;
609;SDS011;292;48.800;9.216;2022-09-29T16:26:44;3.60;;;1.70;;
609;SDS011;292;48.800;9.216;2022-09-29T16:29:24;1.90;;;1.30;;
609;SDS011;292;48.800;9.216;2022-09-29T16:31:53;2.17;;;1.50;;
609;SDS011;292;48.800;9.216;2022-09-29T16:34:27;3.03;;;1.60;;
609;SDS011;292;48.800;9.216;2022-09-29T16:36:57;3.77;;;1.67;;
609;SDS011;292;48.800;9.216;2022-09-29T16:39:27;4.13;;;1.63;;
609;SDS011;292;48.800;9.216;2022-09-29T16:41:57;3.80;;;2.10;;
609;SDS011;292;48.800;9.216;2022-09-29T16:44:30;4.23;;;1.77;;
609;SDS011;292;48.800;9.216;2022-09-29T16:47:11;4.03;;;1.80;;
609;SDS011;292;48.800;9.216;2022-09-29T16:49:43;3.97;;;1.77;;